Time,TemperatureF,DewpointF,PressureIn,WindDirection,WindDirectionDegrees,WindSpeedMPH,WindSpeedGustMPH,Humidity,HourlyPrecipIn,Conditions,Clouds,dailyrainin,SoftwareType,DateUTC
2013-02-09 00:05:00,48.6,42.7,29.94,SW,225,0.0,0.0,80,0.00,,,0.00,WSDL version 420,2013-02-09 05:05:00,
2013-02-09 00:15:00,48.4,42.3,29.94,SW,225,0.0,0.0,79,0.00,,,0.00,WSDL version 420,2013-02-09 05:15:00,
2013-02-09 00:25:00,48.4,42.5,29.94,SW,225,0.0,0.0,80,0.00,,,0.00,WSDL version 420,2013-02-09 05:25:00,
2013-02-09 00:35:00,48.2,42.0,29.94,SW,225,0.0,0.0,79,0.00,,,0.00,WSDL version 420,2013-02-09 05:35:00,
2013-02-09 00:45:00,47.8,41.7,29.94,SW,225,0.0,0.0,79,0.00,,,0.00,WSDL version 420,2013-02-09 05:45:00,
2013-02-09 00:55:00,47.6,41.4,29.94,SW,225,0.0,0.0,79,0.00,,,0.00,WSDL version 420,2013-02-09 05:55:00,
2013-02-09 01:05:00,47.5,41.5,29.94,SW,225,0.0,0.0,80,0.00,,,0.00,WSDL version 420,2013-02-09 06:05:00,
2013-02-09 01:15:00,47.3,41.5,29.94,SW,225,0.0,0.0,80,0.00,,,0.00,WSDL version 420,2013-02-09 06:15:00,
2013-02-09 01:25:00,47.3,41.5,29.97,SW,225,0.0,0.0,80,0.00,,,0.00,WSDL version 420,2013-02-09 06:25:00,
2013-02-09 01:35:00,47.3,41.5,29.97,SW,225,0.0,0.0,80,0.00,,,0.00,WSDL version 420,2013-02-09 06:35:00,
2013-02-09 01:45:00,47.0,41.2,29.97,SW,225,0.0,0.0,80,0.00,,,0.00,WSDL version 420,2013-02-09 06:45:00,
2013-02-09 01:55:00,46.8,40.9,29.97,SW,225,0.0,0.0,80,0.00,,,0.00,WSDL version 420,2013-02-09 06:55:00,
2013-02-09 02:05:00,46.5,40.3,29.97,SW,225,0.0,0.0,79,0.00,,,0.00,WSDL version 420,2013-02-09 07:05:00,
2013-02-09 02:16:00,46.2,40.4,29.97,SW,225,0.0,0.0,80,0.00,,,0.00,WSDL version 420,2013-02-09 07:16:00,
2013-02-09 02:25:00,46.0,40.2,29.97,SW,225,0.0,0.0,80,0.00,,,0.00,WSDL version 420,2013-02-09 07:25:00,
2013-02-09 02:35:00,45.8,40.0,29.97,SW,225,0.0,0.0,80,0.00,,,0.00,WSDL version 420,2013-02-09 07:35:00,
2013-02-09 02:45:00,45.6,39.8,29.97,SW,225,0.0,0.0,80,0.00,,,0.00,WSDL version 420,2013-02-09 07:45:00,
2013-02-09 02:55:00,45.5,40.0,29.97,SW,225,0.0,0.0,81,0.00,,,0.00,WSDL version 420,2013-02-09 07:55:00,
2013-02-09 03:05:00,45.3,39.5,29.97,SW,225,0.0,0.0,80,0.00,,,0.00,WSDL version 420,2013-02-09 08:05:00,
2013-02-09 03:15:00,45.1,39.3,29.97,SW,225,0.0,0.0,80,0.00,,,0.00,WSDL version 420,2013-02-09 08:15:00,
2013-02-09 03:25:00,44.8,39.0,29.97,WSW,248,0.0,0.0,80,0.00,,,0.00,WSDL version 420,2013-02-09 08:25:00,
2013-02-09 03:35:00,44.6,38.8,29.97,WSW,248,0.0,0.0,80,0.00,,,0.00,WSDL version 420,2013-02-09 08:35:00,
2013-02-09 03:45:00,44.2,38.5,29.97,WSW,248,0.0,0.0,80,0.00,,,0.00,WSDL version 420,2013-02-09 08:45:00,
2013-02-09 03:55:00,44.2,38.8,29.97,WSW,248,0.0,0.0,81,0.00,,,0.00,WSDL version 420,2013-02-09 08:55:00,
2013-02-09 04:05:00,44.6,39.5,29.97,WSW,248,0.0,0.0,82,0.00,,,0.00,WSDL version 420,2013-02-09 09:05:00,
2013-02-09 04:15:00,44.8,40.0,29.97,WSW,248,0.0,0.0,83,0.00,,,0.00,WSDL version 420,2013-02-09 09:15:00,
2013-02-09 04:25:00,45.1,40.4,29.97,WSW,248,0.0,0.0,83,0.00,,,0.00,WSDL version 420,2013-02-09 09:25:00,
2013-02-09 04:35:00,45.3,40.5,29.97,WSW,248,0.0,0.0,83,0.00,,,0.00,WSDL version 420,2013-02-09 09:35:00,
2013-02-09 04:45:00,45.3,40.6,29.97,WSW,248,0.0,0.0,83,0.00,,,0.00,WSDL version 420,2013-02-09 09:45:00,
2013-02-09 04:55:00,45.3,40.4,30.00,WSW,248,0.0,0.0,82,0.00,,,0.00,WSDL version 420,2013-02-09 09:55:00,
2013-02-09 05:05:00,45.3,40.2,30.00,West,270,0.0,0.0,82,0.00,,,0.00,WSDL version 420,2013-02-09 10:05:00,
2013-02-09 05:15:00,45.1,40.1,30.00,West,270,0.0,0.0,82,0.00,,,0.00,WSDL version 420,2013-02-09 10:15:00,
2013-02-09 05:25:00,45.1,39.7,30.00,West,270,0.0,0.0,81,0.00,,,0.00,WSDL version 420,2013-02-09 10:25:00,
2013-02-09 05:35:00,45.1,39.7,30.00,West,270,0.0,0.0,81,0.00,,,0.00,WSDL version 420,2013-02-09 10:35:00,
2013-02-09 05:45:00,44.9,39.2,30.00,West,270,0.0,0.0,80,0.00,,,0.00,WSDL version 420,2013-02-09 10:45:00,
2013-02-09 05:55:00,44.7,38.8,30.00,West,270,0.0,0.0,79,0.00,,,0.00,WSDL version 420,2013-02-09 10:55:00,
2013-02-09 06:05:00,44.1,38.0,30.00,West,270,0.0,0.0,79,0.00,,,0.00,WSDL version 420,2013-02-09 11:05:00,
2013-02-09 06:15:00,43.7,37.6,30.03,West,270,0.0,0.0,79,0.00,,,0.00,WSDL version 420,2013-02-09 11:15:00,
2013-02-09 06:25:00,43.4,37.3,30.03,West,270,0.0,0.0,79,0.00,,,0.00,WSDL version 420,2013-02-09 11:25:00,
2013-02-09 06:35:00,43.2,37.2,30.03,West,270,0.0,0.0,79,0.00,,,0.00,WSDL version 420,2013-02-09 11:35:00,
2013-02-09 06:45:00,43.0,36.9,30.03,West,270,0.0,0.0,79,0.00,,,0.00,WSDL version 420,2013-02-09 11:45:00,
2013-02-09 06:55:00,42.8,36.8,30.03,West,270,0.0,0.0,79,0.00,,,0.00,WSDL version 420,2013-02-09 11:55:00,
2013-02-09 07:05:00,42.4,36.3,30.03,West,270,0.0,0.0,78,0.00,,,0.00,WSDL version 420,2013-02-09 12:05:00,
2013-02-09 07:15:00,42.0,35.7,30.03,West,270,0.0,0.0,78,0.00,,,0.00,WSDL version 420,2013-02-09 12:15:00,
2013-02-09 07:25:00,41.5,35.2,30.03,West,270,0.0,0.0,78,0.00,,,0.00,WSDL version 420,2013-02-09 12:25:00,
2013-02-09 07:35:00,41.5,35.5,30.03,West,270,0.0,0.0,79,0.00,,,0.00,WSDL version 420,2013-02-09 12:35:00,
2013-02-09 07:45:00,41.6,35.6,30.06,West,270,0.0,0.0,80,0.00,,,0.00,WSDL version 420,2013-02-09 12:45:00,
2013-02-09 07:55:00,42.6,37.2,30.09,West,270,0.0,0.0,81,0.00,,,0.00,WSDL version 420,2013-02-09 12:55:00,
2013-02-09 08:05:00,44.6,39.4,30.09,West,270,0.0,0.0,81,0.00,,,0.00,WSDL version 420,2013-02-09 13:05:00,
2013-02-09 08:15:00,46.5,40.6,30.06,NW,315,0.0,0.0,79,0.00,,,0.00,WSDL version 420,2013-02-09 13:15:00,
2013-02-09 08:25:00,47.3,39.7,30.06,NNW,345,0.0,0.0,74,0.00,,,0.00,WSDL version 420,2013-02-09 13:25:00,
2013-02-09 08:35:00,47.5,38.9,30.06,NNW,338,0.0,0.0,71,0.00,,,0.00,WSDL version 420,2013-02-09 13:35:00,
2013-02-09 08:45:00,47.3,38.3,30.06,NNE,15,0.0,0.0,70,0.00,,,0.00,WSDL version 420,2013-02-09 13:45:00,
2013-02-09 08:55:00,47.3,37.6,30.09,North,10,0.0,0.0,68,0.00,,,0.00,WSDL version 420,2013-02-09 13:55:00,
2013-02-09 09:05:00,48.0,37.5,30.09,North,357,0.0,0.0,65,0.00,,,0.00,WSDL version 420,2013-02-09 14:05:00,
2013-02-09 09:15:00,48.0,36.0,30.06,NE,42,0.0,1.1,62,0.00,,,0.00,WSDL version 420,2013-02-09 14:15:00,
2013-02-09 09:25:00,48.6,35.8,30.09,NE,41,0.0,1.1,60,0.00,,,0.00,WSDL version 420,2013-02-09 14:25:00,
2013-02-09 09:35:00,48.7,35.1,30.09,NNE,18,0.0,0.0,59,0.00,,,0.00,WSDL version 420,2013-02-09 14:35:00,
2013-02-09 09:45:00,49.7,35.3,30.09,NE,45,0.0,0.0,58,0.00,,,0.00,WSDL version 420,2013-02-09 14:45:00,
2013-02-09 09:55:00,51.1,35.3,30.09,NE,53,0.0,0.0,54,0.00,,,0.00,WSDL version 420,2013-02-09 14:55:00,
2013-02-09 10:05:00,53.4,35.9,30.09,NNE,33,0.0,0.0,49,0.00,,,0.00,WSDL version 420,2013-02-09 15:05:00,
2013-02-09 10:15:00,54.5,33.8,30.12,NE,45,0.0,0.0,45,0.00,,,0.00,WSDL version 420,2013-02-09 15:15:00,
2013-02-09 10:25:00,54.8,32.4,30.12,NE,39,0.0,0.9,41,0.00,,,0.00,WSDL version 420,2013-02-09 15:25:00,
2013-02-09 10:35:00,57.0,32.8,30.12,NNE,29,0.0,0.0,38,0.00,,,0.00,WSDL version 420,2013-02-09 15:35:00,
2013-02-09 10:45:00,59.7,34.2,30.15,East,88,0.0,0.0,38,0.00,,,0.00,WSDL version 420,2013-02-09 15:45:00,
2013-02-09 10:55:00,63.7,37.5,30.15,NNE,15,0.0,0.0,36,0.00,,,0.00,WSDL version 420,2013-02-09 15:55:00,
2013-02-09 11:05:00,66.6,38.1,30.15,NW,321,0.0,0.0,35,0.00,,,0.00,WSDL version 420,2013-02-09 16:05:00,
2013-02-09 11:15:00,68.6,38.4,30.15,WNW,303,0.0,0.0,33,0.00,,,0.00,WSDL version 420,2013-02-09 16:15:00,
2013-02-09 11:25:00,67.9,35.3,30.15,NW,318,0.0,0.0,31,0.00,,,0.00,WSDL version 420,2013-02-09 16:25:00,
2013-02-09 11:35:00,68.6,34.6,30.15,East,90,0.0,0.0,29,0.00,,,0.00,WSDL version 420,2013-02-09 16:35:00,
2013-02-09 11:45:00,70.4,35.0,30.15,ENE,70,0.0,0.0,27,0.00,,,0.00,WSDL version 420,2013-02-09 16:45:00,
2013-02-09 11:55:00,70.4,33.2,30.15,East,83,0.0,0.0,25,0.00,,,0.00,WSDL version 420,2013-02-09 16:55:00,
2013-02-09 12:05:00,69.3,31.2,30.15,NNE,30,0.0,0.0,24,0.00,,,0.00,WSDL version 420,2013-02-09 17:05:00,
2013-02-09 12:15:00,70.1,32.0,30.15,ENE,58,0.0,0.0,25,0.00,,,0.00,WSDL version 420,2013-02-09 17:15:00,
2013-02-09 12:25:00,70.8,32.4,30.15,ENE,60,0.0,0.0,24,0.00,,,0.00,WSDL version 420,2013-02-09 17:25:00,
2013-02-09 12:35:00,71.1,32.7,30.15,NE,37,0.0,0.0,24,0.00,,,0.00,WSDL version 420,2013-02-09 17:35:00,
2013-02-09 12:45:00,70.6,31.8,30.12,NE,39,0.0,0.0,24,0.00,,,0.00,WSDL version 420,2013-02-09 17:45:00,
2013-02-09 12:55:00,69.1,30.8,30.12,NE,39,0.0,0.0,24,0.00,,,0.00,WSDL version 420,2013-02-09 17:55:00,
2013-02-09 13:05:00,68.7,30.3,30.12,ENE,63,0.0,0.0,23,0.00,,,0.00,WSDL version 420,2013-02-09 18:05:00,
2013-02-09 13:15:00,67.0,29.0,30.12,NE,50,0.0,0.0,24,0.00,,,0.00,WSDL version 420,2013-02-09 18:15:00,
2013-02-09 13:25:00,66.6,28.7,30.12,NE,40,0.0,0.0,24,0.00,,,0.00,WSDL version 420,2013-02-09 18:25:00,
2013-02-09 13:35:00,66.5,29.1,30.12,ENE,73,0.0,0.0,25,0.00,,,0.00,WSDL version 420,2013-02-09 18:35:00,
2013-02-09 13:45:00,66.1,29.2,30.09,NNE,32,0.0,0.0,25,0.00,,,0.00,WSDL version 420,2013-02-09 18:45:00,
2013-02-09 13:55:00,65.6,28.9,30.12,SE,127,0.0,0.0,25,0.00,,,0.00,WSDL version 420,2013-02-09 18:55:00,
2013-02-09 14:05:00,66.0,29.2,30.12,NE,56,0.0,0.0,25,0.00,,,0.00,WSDL version 420,2013-02-09 19:05:00,
2013-02-09 14:15:00,66.6,28.7,30.09,ESE,108,0.0,0.0,24,0.00,,,0.00,WSDL version 420,2013-02-09 19:15:00,
2013-02-09 14:25:00,66.7,28.2,30.09,SE,135,0.0,0.0,23,0.00,,,0.00,WSDL version 420,2013-02-09 19:25:00,
2013-02-09 14:35:00,66.9,28.5,30.09,East,83,0.0,0.0,24,0.00,,,0.00,WSDL version 420,2013-02-09 19:35:00,
2013-02-09 14:45:00,67.4,28.4,30.09,ESE,115,0.0,0.0,23,0.00,,,0.00,WSDL version 420,2013-02-09 19:45:00,
2013-02-09 14:55:00,67.2,28.2,30.09,ESE,115,0.0,0.0,23,0.00,,,0.00,WSDL version 420,2013-02-09 19:55:00,
2013-02-09 15:05:00,67.1,28.1,30.09,NE,42,0.0,0.0,23,0.00,,,0.00,WSDL version 420,2013-02-09 20:05:00,
2013-02-09 15:15:00,67.2,29.0,30.09,ESE,121,0.0,0.0,24,0.00,,,0.00,WSDL version 420,2013-02-09 20:15:00,
2013-02-09 15:25:00,66.4,28.0,30.09,SE,135,0.0,0.0,24,0.00,,,0.00,WSDL version 420,2013-02-09 20:25:00,
2013-02-09 15:35:00,65.8,28.0,30.09,NE,43,0.0,0.0,24,0.00,,,0.00,WSDL version 420,2013-02-09 20:35:00,
2013-02-09 15:45:00,65.1,26.4,30.09,ESE,110,0.0,0.0,23,0.00,,,0.00,WSDL version 420,2013-02-09 20:45:00,
2013-02-09 15:55:00,64.5,25.9,30.06,East,90,0.0,0.0,23,0.00,,,0.00,WSDL version 420,2013-02-09 20:55:00,
2013-02-09 16:05:00,64.6,25.9,30.06,East,84,0.0,0.0,23,0.00,,,0.00,WSDL version 420,2013-02-09 21:05:00,
2013-02-09 16:15:00,64.2,26.7,30.09,East,98,0.0,0.0,24,0.00,,,0.00,WSDL version 420,2013-02-09 21:15:00,
2013-02-09 16:25:00,64.1,26.6,30.06,NE,56,0.0,0.0,24,0.00,,,0.00,WSDL version 420,2013-02-09 21:25:00,
2013-02-09 16:35:00,63.7,26.2,30.06,NE,53,0.0,0.0,24,0.00,,,0.00,WSDL version 420,2013-02-09 21:35:00,
2013-02-09 16:45:00,63.3,25.9,30.09,NE,45,0.0,0.0,24,0.00,,,0.00,WSDL version 420,2013-02-09 21:45:00,
2013-02-09 16:55:00,63.0,25.6,30.09,NE,48,0.0,0.0,24,0.00,,,0.00,WSDL version 420,2013-02-09 21:55:00,
2013-02-09 17:05:00,62.5,25.6,30.09,ESE,103,0.0,0.0,25,0.00,,,0.00,WSDL version 420,2013-02-09 22:05:00,
2013-02-09 17:15:00,62.0,25.8,30.09,East,98,0.0,0.0,25,0.00,,,0.00,WSDL version 420,2013-02-09 22:15:00,
2013-02-09 17:25:00,61.1,25.0,30.09,ESE,110,0.0,0.0,25,0.00,,,0.00,WSDL version 420,2013-02-09 22:25:00,
2013-02-09 17:35:00,60.3,24.4,30.09,East,93,0.0,0.0,25,0.00,,,0.00,WSDL version 420,2013-02-09 22:35:00,
2013-02-09 17:45:00,59.4,23.6,30.09,ESE,118,0.0,0.0,25,0.00,,,0.00,WSDL version 420,2013-02-09 22:45:00,
2013-02-09 17:55:00,58.6,22.9,30.09,ESE,110,0.0,0.0,25,0.00,,,0.00,WSDL version 420,2013-02-09 22:55:00,
2013-02-09 18:05:00,57.7,22.1,30.09,ENE,78,0.0,0.0,25,0.00,,,0.00,WSDL version 420,2013-02-09 23:05:00,
2013-02-09 18:15:00,56.8,21.4,30.09,ESE,113,0.0,0.0,25,0.00,,,0.00,WSDL version 420,2013-02-09 23:15:00,
2013-02-09 18:25:00,56.0,20.7,30.09,East,96,0.0,0.9,25,0.00,,,0.00,WSDL version 420,2013-02-09 23:25:00,
2013-02-09 18:35:00,55.0,20.8,30.09,East,101,0.0,0.0,26,0.00,,,0.00,WSDL version 420,2013-02-09 23:35:00,
2013-02-09 18:45:00,54.4,20.2,30.09,East,101,0.0,0.0,26,0.00,,,0.00,WSDL version 420,2013-02-09 23:45:00,
2013-02-09 18:55:00,53.6,19.8,30.09,ENE,70,0.0,0.0,27,0.00,,,0.00,WSDL version 420,2013-02-09 23:55:00,
2013-02-09 19:05:00,53.0,19.9,30.09,NE,45,0.0,0.0,27,0.00,,,0.00,WSDL version 420,2013-02-10 00:05:00,
2013-02-09 19:15:00,52.1,19.1,30.12,NE,45,0.0,0.0,27,0.00,,,0.00,WSDL version 420,2013-02-10 00:15:00,
2013-02-09 19:25:00,51.3,18.4,30.12,NE,45,0.0,0.0,27,0.00,,,0.00,WSDL version 420,2013-02-10 00:25:00,
2013-02-09 19:35:00,50.8,18.9,30.12,NE,45,0.0,0.0,28,0.00,,,0.00,WSDL version 420,2013-02-10 00:35:00,
2013-02-09 19:45:00,50.2,18.3,30.12,NE,45,0.0,0.0,28,0.00,,,0.00,WSDL version 420,2013-02-10 00:45:00,
2013-02-09 19:55:00,49.7,19.8,30.12,NE,45,0.0,0.0,31,0.00,,,0.00,WSDL version 420,2013-02-10 00:55:00,
2013-02-09 20:05:00,49.0,21.5,30.12,NE,45,0.0,0.0,34,0.00,,,0.00,WSDL version 420,2013-02-10 01:05:00,
2013-02-09 20:15:00,48.6,22.2,30.12,NE,45,0.0,0.0,35,0.00,,,0.00,WSDL version 420,2013-02-10 01:15:00,
2013-02-09 20:25:00,48.1,23.2,30.15,NE,45,0.0,0.0,38,0.00,,,0.00,WSDL version 420,2013-02-10 01:25:00,
2013-02-09 20:35:00,47.4,23.1,30.15,NE,45,0.0,0.0,38,0.00,,,0.00,WSDL version 420,2013-02-10 01:35:00,
2013-02-09 20:46:00,46.8,22.7,30.12,NE,45,0.0,0.0,38,0.00,,,0.00,WSDL version 420,2013-02-10 01:46:00,
2013-02-09 20:55:00,45.9,22.3,30.12,NE,45,0.0,0.0,39,0.00,,,0.00,WSDL version 420,2013-02-10 01:55:00,
2013-02-09 21:05:00,44.9,21.9,30.12,NE,45,0.0,0.0,40,0.00,,,0.00,WSDL version 420,2013-02-10 02:05:00,
2013-02-09 21:15:00,44.4,21.7,30.12,NE,45,0.0,0.0,41,0.00,,,0.00,WSDL version 420,2013-02-10 02:15:00,
2013-02-09 21:25:00,43.7,21.6,30.12,NE,45,0.0,0.0,41,0.00,,,0.00,WSDL version 420,2013-02-10 02:25:00,
2013-02-09 21:35:00,43.4,21.8,30.12,NE,45,0.0,0.0,42,0.00,,,0.00,WSDL version 420,2013-02-10 02:35:00,
2013-02-09 21:45:00,42.8,21.9,30.12,NE,45,0.0,0.0,43,0.00,,,0.00,WSDL version 420,2013-02-10 02:45:00,
2013-02-09 21:55:00,42.5,22.9,30.12,NE,45,0.0,0.0,46,0.00,,,0.00,WSDL version 420,2013-02-10 02:55:00,
2013-02-09 22:05:00,42.3,23.5,30.12,NE,45,0.0,0.0,47,0.00,,,0.00,WSDL version 420,2013-02-10 03:05:00,
2013-02-09 22:15:00,42.2,23.9,30.12,NE,45,0.0,0.0,48,0.00,,,0.00,WSDL version 420,2013-02-10 03:15:00,
2013-02-09 22:25:00,41.7,23.8,30.12,NE,45,0.0,0.0,49,0.00,,,0.00,WSDL version 420,2013-02-10 03:25:00,
2013-02-09 22:47:00,40.8,23.6,30.12,NE,45,0.0,0.0,50,0.00,,,0.00,WSDL version 420,2013-02-10 03:47:00,
2013-02-09 22:57:00,40.6,23.9,30.15,NE,45,0.0,0.0,51,0.00,,,0.00,WSDL version 420,2013-02-10 03:57:00,
2013-02-09 23:07:00,40.3,24.0,30.15,NE,45,0.0,0.0,52,0.00,,,0.00,WSDL version 420,2013-02-10 04:07:00,
2013-02-09 23:17:00,40.2,24.5,30.12,NE,45,0.0,0.0,53,0.00,,,0.00,WSDL version 420,2013-02-10 04:17:00,
2013-02-09 23:27:00,39.9,24.2,30.12,NE,45,0.0,0.0,53,0.00,,,0.00,WSDL version 420,2013-02-10 04:27:00,
2013-02-09 23:37:00,39.7,24.2,30.12,NE,45,0.0,0.0,54,0.00,,,0.00,WSDL version 420,2013-02-10 04:37:00,
2013-02-09 23:47:00,39.4,24.1,30.12,NE,45,0.0,0.0,54,0.00,,,0.00,WSDL version 420,2013-02-10 04:47:00,
2013-02-09 23:57:00,39.5,24.7,30.12,NE,45,0.0,0.0,55,0.00,,,0.00,WSDL version 420,2013-02-10 04:57:00,